Terminal Aerodrome Forecast
Issued by NWS Memphis, TN

Home | Current Version | Previous Version | Text Only | Print | Product List | Glossary On
Versions: 1 2 3 4 5 6 7 8 9 10 11 12 13 14 15 16 17 18
000
FTUS44 KMEG 201200 AAB
TAFJBR
TAF AMD
KJBR 201220Z 2012/2112 00000KT P6SM SKC
      TEMPO 2012/2013 4SM BR SCT003
     FM201400 22008KT P6SM SCT040
     FM210200 23004KT P6SM SCT250=

USA.gov is the U.S. government's official web portal to all federal, state and local government web resources and services.